createdAt,value
2019-02-06T00:02:22.077Z,73.19
2019-02-06T00:04:49.481Z,72.96
2019-02-06T00:07:16.884Z,72.44
2019-02-06T00:09:44.312Z,72.40
2019-02-06T00:12:11.750Z,72.09
2019-02-06T00:14:40.014Z,72.08
2019-02-06T00:17:07.808Z,72.20
2019-02-06T00:19:35.259Z,72.03
2019-02-06T00:22:02.707Z,71.96
2019-02-06T00:24:30.163Z,72.21
2019-02-06T00:26:57.682Z,72.05
2019-02-06T00:29:25.110Z,71.82
2019-02-06T00:31:52.570Z,71.38
2019-02-06T00:34:20.007Z,71.31
2019-02-06T00:36:47.408Z,71.00
2019-02-06T00:39:14.985Z,70.92
2019-02-06T00:41:42.717Z,70.82
2019-02-06T00:44:10.143Z,70.62
2019-02-06T00:46:38.201Z,70.60
2019-02-06T00:49:05.603Z,70.56
2019-02-06T00:51:33.097Z,70.44
2019-02-06T00:54:00.500Z,70.28
2019-02-06T00:56:27.917Z,70.60
2019-02-06T00:58:55.342Z,70.54
2019-02-06T01:01:22.767Z,70.62
2019-02-06T01:03:50.227Z,71.23
2019-02-06T01:06:17.635Z,71.23
2019-02-06T01:08:45.035Z,71.53
2019-02-06T01:11:12.449Z,71.72
2019-02-06T01:13:39.850Z,71.88
2019-02-06T01:16:07.346Z,72.17
2019-02-06T01:18:34.794Z,72.08
2019-02-06T01:21:02.203Z,71.47
2019-02-06T01:23:29.670Z,71.32
2019-02-06T01:25:57.091Z,71.14
2019-02-06T01:28:24.478Z,71.10
2019-02-06T01:30:51.894Z,71.00
2019-02-06T01:33:19.346Z,70.76
2019-02-06T01:35:50.018Z,70.40
2019-02-06T01:38:15.125Z,70.15
2019-02-06T01:40:42.559Z,70.25
2019-02-06T01:43:09.970Z,70.32
2019-02-06T01:45:37.396Z,70.37
2019-02-06T01:48:04.818Z,70.20
2019-02-06T01:50:32.223Z,70.15
2019-02-06T01:52:59.639Z,70.22
2019-02-06T01:55:27.038Z,70.20
2019-02-06T01:57:54.441Z,70.41
2019-02-06T02:00:22.764Z,70.62
2019-02-06T02:02:50.176Z,70.71
2019-02-06T02:05:17.576Z,70.75
2019-02-06T02:07:44.992Z,70.71
2019-02-06T02:10:12.421Z,70.71
2019-02-06T02:12:39.850Z,70.92
2019-02-06T02:15:08.006Z,71.02
2019-02-06T02:17:35.396Z,70.85
2019-02-06T02:20:02.805Z,70.79
2019-02-06T02:22:30.384Z,71.04
2019-02-06T02:24:57.809Z,71.07
2019-02-06T02:27:25.225Z,71.05
2019-02-06T02:29:52.642Z,70.93
2019-02-06T02:32:20.070Z,71.04
2019-02-06T02:34:47.483Z,70.93
2019-02-06T02:37:15.634Z,70.68
2019-02-06T02:39:43.063Z,70.58
2019-02-06T02:42:10.508Z,70.68
2019-02-06T02:44:37.920Z,70.44
2019-02-06T02:47:05.334Z,70.12
2019-02-06T02:49:33.007Z,70.45
2019-02-06T02:52:00.435Z,70.51
2019-02-06T02:54:27.853Z,70.42
2019-02-06T02:56:55.267Z,70.55
2019-02-06T02:59:22.760Z,70.54
2019-02-06T03:01:51.954Z,70.59
2019-02-06T03:04:19.361Z,70.50
2019-02-06T03:06:46.778Z,70.80
2019-02-06T03:09:14.192Z,70.92
2019-02-06T03:11:41.614Z,71.33
2019-02-06T03:14:09.035Z,71.70
2019-02-06T03:16:36.462Z,71.74
2019-02-06T03:19:03.860Z,71.78
2019-02-06T03:21:32.051Z,71.49
2019-02-06T03:23:59.480Z,71.36
2019-02-06T03:26:27.326Z,71.24
2019-02-06T03:28:54.732Z,71.47
2019-02-06T03:31:22.275Z,71.50
2019-02-06T03:33:49.686Z,71.41
2019-02-06T03:36:17.090Z,71.55
2019-02-06T03:38:44.544Z,71.79
2019-02-06T03:41:12.007Z,71.58
2019-02-06T03:43:39.534Z,71.58
2019-02-06T03:46:06.947Z,71.41
2019-02-06T03:48:34.359Z,71.30
2019-02-06T03:51:01.768Z,71.34
2019-02-06T03:53:29.666Z,71.57
2019-02-06T03:55:57.216Z,71.50
2019-02-06T03:58:24.633Z,71.56
2019-02-06T04:00:52.166Z,71.63
2019-02-06T04:03:19.564Z,71.50
2019-02-06T04:05:46.989Z,71.29
2019-02-06T04:08:14.436Z,71.22
2019-02-06T04:10:41.866Z,71.14
2019-02-06T04:13:09.284Z,71.29
2019-02-06T04:15:36.717Z,71.81
2019-02-06T04:18:04.153Z,71.99
2019-02-06T04:20:31.583Z,72.44
2019-02-06T04:22:59.001Z,72.57
2019-02-06T04:25:26.420Z,72.53
2019-02-06T04:27:53.851Z,72.50
2019-02-06T04:30:21.248Z,72.38
2019-02-06T04:32:48.658Z,72.41
2019-02-06T04:35:16.094Z,72.45
2019-02-06T04:37:43.502Z,72.64
2019-02-06T04:40:12.685Z,72.75
2019-02-06T04:42:40.104Z,72.56
2019-02-06T04:45:07.573Z,72.50
2019-02-06T04:47:35.022Z,72.46
2019-02-06T04:50:02.425Z,72.28
2019-02-06T04:52:30.291Z,72.09
2019-02-06T04:54:57.704Z,71.88
2019-02-06T04:57:25.102Z,71.75
2019-02-06T04:59:52.549Z,71.68
2019-02-06T05:02:19.999Z,71.60
2019-02-06T05:04:47.394Z,71.48
2019-02-06T05:07:19.385Z,71.50
2019-02-06T05:09:42.222Z,71.40
2019-02-06T05:12:09.753Z,71.35
2019-02-06T05:14:37.095Z,71.47
2019-02-06T05:17:04.563Z,71.45
2019-02-06T05:19:32.006Z,71.70
2019-02-06T05:21:59.434Z,71.53
2019-02-06T05:24:26.830Z,71.52
2019-02-06T05:26:54.259Z,71.47
2019-02-06T05:29:21.658Z,71.27
2019-02-06T05:31:49.083Z,71.17
2019-02-06T05:34:16.508Z,71.05
2019-02-06T05:36:43.918Z,70.81
2019-02-06T05:39:11.360Z,70.71
2019-02-06T05:41:39.274Z,70.68
2019-02-06T05:44:06.764Z,70.77
2019-02-06T05:46:34.125Z,70.82
2019-02-06T05:49:01.564Z,71.04
2019-02-06T05:51:29.845Z,71.37
2019-02-06T05:53:57.287Z,71.54
2019-02-06T05:56:24.677Z,71.39
2019-02-06T05:58:52.125Z,71.22
2019-02-06T06:01:19.581Z,71.03
2019-02-06T06:03:47.106Z,70.92
2019-02-06T06:06:14.689Z,70.79
2019-02-06T06:08:42.120Z,70.78
2019-02-06T06:11:09.928Z,70.73
2019-02-06T06:13:37.346Z,70.71
2019-02-06T06:16:04.760Z,70.60
2019-02-06T06:18:32.202Z,70.46
2019-02-06T06:20:59.601Z,70.42
2019-02-06T06:23:27.127Z,70.73
2019-02-06T06:25:54.535Z,70.88
2019-02-06T06:28:22.364Z,71.21
2019-02-06T06:30:49.840Z,71.42
2019-02-06T06:33:17.261Z,71.56
2019-02-06T06:35:44.672Z,71.73
2019-02-06T06:38:12.111Z,71.87
2019-02-06T06:40:39.532Z,71.53
2019-02-06T06:43:06.962Z,71.51
2019-02-06T06:45:35.886Z,71.74
2019-02-06T06:48:03.511Z,71.38
2019-02-06T06:50:30.947Z,71.55
2019-02-06T06:52:58.366Z,71.80
2019-02-06T06:55:26.635Z,72.06
2019-02-06T06:57:54.820Z,72.35
2019-02-06T07:00:30.998Z,72.71
2019-02-06T07:02:58.726Z,72.95
2019-02-06T07:05:26.201Z,73.26
2019-02-06T07:07:53.644Z,73.47
2019-02-06T07:10:21.100Z,73.66
2019-02-06T07:12:48.511Z,73.68
2019-02-06T07:15:21.329Z,73.70
2019-02-06T07:17:48.847Z,73.50
2019-02-06T07:20:16.735Z,73.41
2019-02-06T07:22:44.199Z,73.33
2019-02-06T07:25:11.671Z,73.20
2019-02-06T07:27:39.709Z,73.30
2019-02-06T07:30:07.133Z,73.64
2019-02-06T07:32:36.351Z,73.75
2019-02-06T07:35:02.106Z,73.33
2019-02-06T07:37:29.724Z,72.80
2019-02-06T07:39:57.166Z,72.89
2019-02-06T07:42:24.620Z,73.24
2019-02-06T07:44:52.055Z,73.30
2019-02-06T07:47:19.456Z,73.33
2019-02-06T07:49:46.873Z,73.57
2019-02-06T07:52:14.405Z,73.84
2019-02-06T07:54:41.815Z,74.25
2019-02-06T07:57:09.216Z,74.63
2019-02-06T07:59:36.626Z,74.65
2019-02-06T08:02:04.034Z,74.40
2019-02-06T08:04:31.443Z,74.26
2019-02-06T08:06:58.879Z,73.89
2019-02-06T08:09:26.289Z,73.47
2019-02-06T08:11:53.695Z,73.12
2019-02-06T08:14:21.111Z,73.08
2019-02-06T08:16:48.600Z,73.35
2019-02-06T08:19:16.006Z,73.30
2019-02-06T08:21:43.445Z,72.98
2019-02-06T08:24:10.865Z,72.72
2019-02-06T08:26:38.285Z,72.62
2019-02-06T08:29:05.698Z,73.37
2019-02-06T08:31:33.109Z,73.63
2019-02-06T08:34:00.512Z,74.17
2019-02-06T08:36:27.937Z,74.14
2019-02-06T08:38:55.777Z,73.79
2019-02-06T08:41:22.830Z,73.94
2019-02-06T08:43:50.252Z,73.99
2019-02-06T08:46:17.675Z,74.11
2019-02-06T08:48:45.083Z,74.24
2019-02-06T08:51:12.519Z,74.83
2019-02-06T08:53:39.938Z,75.21
2019-02-06T08:56:07.389Z,75.25
2019-02-06T08:58:34.816Z,75.02
2019-02-06T09:01:02.598Z,74.63
2019-02-06T09:03:30.090Z,74.39
2019-02-06T09:05:57.506Z,74.50
2019-02-06T09:08:24.921Z,74.18
2019-02-06T09:10:52.367Z,73.79
2019-02-06T09:13:19.835Z,73.68
2019-02-06T09:15:47.546Z,73.53
2019-02-06T09:18:15.058Z,73.39
2019-02-06T09:20:42.490Z,72.95
2019-02-06T09:23:09.882Z,72.40
2019-02-06T09:25:37.344Z,71.26
2019-02-06T09:28:04.858Z,71.10
2019-02-06T09:30:33.489Z,71.37
2019-02-06T09:33:00.913Z,71.68
2019-02-06T09:35:28.311Z,71.92
2019-02-06T09:37:55.720Z,71.86
2019-02-06T09:40:23.149Z,71.62
2019-02-06T09:42:50.636Z,71.53
2019-02-06T09:45:18.089Z,71.56
2019-02-06T09:47:45.492Z,71.70
2019-02-06T09:53:06.819Z,70.48
2019-02-06T09:55:34.199Z,70.87
2019-02-06T09:58:01.642Z,71.52
2019-02-06T10:00:32.857Z,72.31
2019-02-06T10:03:00.291Z,72.67
2019-02-06T10:05:27.872Z,72.07
2019-02-06T10:07:55.821Z,71.75
2019-02-06T10:10:23.930Z,71.40
2019-02-06T10:12:51.435Z,71.27
2019-02-06T10:15:27.796Z,71.22
2019-02-06T10:17:55.190Z,71.20
2019-02-06T10:20:23.420Z,70.64
2019-02-06T10:22:50.841Z,70.23
2019-02-06T10:25:18.259Z,70.11
2019-02-06T10:27:46.260Z,69.99
2019-02-06T10:30:15.374Z,69.92
2019-02-06T10:32:42.786Z,70.01
2019-02-06T10:35:10.296Z,69.56
2019-02-06T10:37:37.746Z,69.60
2019-02-06T10:40:05.199Z,69.57
2019-02-06T10:42:32.660Z,69.48
2019-02-06T10:45:00.320Z,69.38
2019-02-06T10:47:27.696Z,69.45
2019-02-06T10:49:55.124Z,69.31
2019-02-06T10:52:22.656Z,69.23
2019-02-06T10:54:50.104Z,69.21
2019-02-06T10:57:17.507Z,68.80
2019-02-06T10:59:44.924Z,68.76
2019-02-06T11:02:12.409Z,68.44
2019-02-06T11:04:39.834Z,68.33
2019-02-06T11:07:08.179Z,67.96
2019-02-06T11:09:45.713Z,68.12
2019-02-06T11:12:02.283Z,68.38
2019-02-06T11:14:29.756Z,68.45
2019-02-06T11:16:57.162Z,68.40
2019-02-06T11:19:24.592Z,68.00
2019-02-06T11:21:52.071Z,67.79
2019-02-06T11:24:19.502Z,67.69
2019-02-06T11:26:46.910Z,67.36
2019-02-06T11:29:14.509Z,67.29
2019-02-06T11:31:42.058Z,67.37
2019-02-06T11:34:09.501Z,67.33
2019-02-06T11:36:36.925Z,67.54
2019-02-06T11:39:04.380Z,67.34
2019-02-06T11:41:31.834Z,67.02
2019-02-06T11:43:59.234Z,66.72
2019-02-06T11:46:26.693Z,66.51
2019-02-06T11:48:54.142Z,66.75
2019-02-06T11:51:24.390Z,66.93
2019-02-06T11:53:49.095Z,66.53
2019-02-06T11:56:16.553Z,66.34
2019-02-06T11:58:44.009Z,66.03
2019-02-06T12:01:11.425Z,66.11
2019-02-06T12:03:38.859Z,66.31
2019-02-06T12:06:06.345Z,66.75
2019-02-06T12:08:33.775Z,66.59
2019-02-06T12:11:01.186Z,66.82
2019-02-06T12:13:28.594Z,66.87
2019-02-06T12:15:56.182Z,66.80
2019-02-06T12:18:23.585Z,67.02
2019-02-06T12:20:51.024Z,66.57
2019-02-06T12:23:18.747Z,66.47
2019-02-06T12:25:46.161Z,66.60
2019-02-06T12:28:14.616Z,66.08
2019-02-06T12:30:42.081Z,66.12
2019-02-06T12:33:09.474Z,65.69
2019-02-06T12:35:36.930Z,65.80
2019-02-06T12:38:04.394Z,65.57
2019-02-06T12:40:31.833Z,65.88
2019-02-06T12:42:59.408Z,66.07
2019-02-06T12:45:26.828Z,66.26
2019-02-06T12:47:54.767Z,66.40
2019-02-06T12:50:22.372Z,66.73
2019-02-06T12:52:50.134Z,65.93
2019-02-06T12:55:19.612Z,65.51
2019-02-06T12:57:46.408Z,65.43
2019-02-06T13:00:18.272Z,65.29
2019-02-06T13:02:45.687Z,65.45
2019-02-06T13:05:13.115Z,65.60
2019-02-06T13:07:40.509Z,65.98
2019-02-06T13:10:08.848Z,66.21
2019-02-06T13:12:36.998Z,66.15
2019-02-06T13:15:04.425Z,66.02
2019-02-06T13:17:31.920Z,65.63
2019-02-06T13:19:59.390Z,65.44
2019-02-06T13:22:26.831Z,65.49
2019-02-06T13:24:54.286Z,65.49
2019-02-06T13:27:21.736Z,65.37
2019-02-06T13:29:49.151Z,65.60
2019-02-06T13:32:16.562Z,65.79
2019-02-06T13:34:43.975Z,65.69
2019-02-06T13:37:11.417Z,65.13
2019-02-06T13:39:38.827Z,64.61
2019-02-06T13:42:06.943Z,64.10
2019-02-06T13:44:34.366Z,64.13
2019-02-06T13:47:01.770Z,64.51
2019-02-06T13:49:29.167Z,64.56
2019-02-06T13:51:56.574Z,64.77
2019-02-06T13:54:24.007Z,64.87
2019-02-06T13:56:51.470Z,64.90
2019-02-06T13:59:18.887Z,64.77
2019-02-06T14:01:46.373Z,64.74
2019-02-06T14:04:13.793Z,64.56
2019-02-06T14:06:41.198Z,64.49
2019-02-06T14:09:08.595Z,64.15
2019-02-06T14:11:36.227Z,64.18
2019-02-06T14:14:03.761Z,64.46
2019-02-06T14:16:31.171Z,64.22
2019-02-06T14:18:58.596Z,63.98
2019-02-06T14:21:26.065Z,63.65
2019-02-06T14:23:53.482Z,63.61
2019-02-06T14:26:28.692Z,63.92
2019-02-06T14:31:54.902Z,64.11
2019-02-06T14:34:28.202Z,64.38
2019-02-06T14:39:52.887Z,62.91
2019-02-06T14:45:22.166Z,62.26
2019-02-06T14:48:14.373Z,63.29
2019-02-06T14:50:44.154Z,63.83
2019-02-06T14:56:38.270Z,63.98
2019-02-06T15:02:10.154Z,62.38
2019-02-06T15:04:40.218Z,63.40
2019-02-06T15:10:23.979Z,62.63
2019-02-06T15:12:52.971Z,62.69
2019-02-06T15:15:33.735Z,63.24
2019-02-06T15:18:16.207Z,63.35
2019-02-06T15:23:51.102Z,62.61
2019-02-06T15:26:24.141Z,63.46
2019-02-06T15:28:59.175Z,64.19
2019-02-06T15:34:39.251Z,64.77
2019-02-06T15:37:13.267Z,64.88
2019-02-06T15:39:50.437Z,65.16
2019-02-06T15:42:22.544Z,65.57
2019-02-06T15:44:56.763Z,65.21
2019-02-06T15:47:37.755Z,65.32
2019-02-06T15:50:08.677Z,65.56
2019-02-06T15:52:47.812Z,65.58
2019-02-06T15:55:20.968Z,65.49
2019-02-06T15:57:55.773Z,65.51
2019-02-06T16:00:31.508Z,65.81
2019-02-06T16:02:59.159Z,66.03
2019-02-06T16:05:36.825Z,66.37
2019-02-06T16:11:12.567Z,67.30
2019-02-06T16:16:35.781Z,66.50
2019-02-06T16:19:08.831Z,67.13
2019-02-06T16:21:52.219Z,67.63
2019-02-06T16:24:10.873Z,68.00
2019-02-06T16:26:57.552Z,68.20
2019-02-06T16:29:46.782Z,68.14
2019-02-06T16:32:21.751Z,67.79
2019-02-06T16:38:02.609Z,67.02
2019-02-06T16:40:41.669Z,67.50
2019-02-06T16:46:28.528Z,66.34
2019-02-06T16:49:17.584Z,66.93
2019-02-06T16:51:47.819Z,67.30
2019-02-06T16:54:22.816Z,67.70
2019-02-06T16:56:51.378Z,68.04
2019-02-06T16:59:35.772Z,68.31
2019-02-06T17:02:09.856Z,68.84
2019-02-06T17:04:54.919Z,69.12
2019-02-06T17:10:39.929Z,68.92
2019-02-06T17:13:12.016Z,68.87
2019-02-06T17:16:00.962Z,69.20
2019-02-06T17:18:36.746Z,69.98
2019-02-06T17:21:20.023Z,70.46
2019-02-06T17:27:02.216Z,69.27
2019-02-06T17:32:39.260Z,68.37
2019-02-06T17:35:17.265Z,68.43
2019-02-06T17:37:50.125Z,68.54
2019-02-06T17:40:40.976Z,68.56
2019-02-06T17:43:20.032Z,68.88
2019-02-06T17:45:49.849Z,69.01
2019-02-06T17:48:27.956Z,69.38
2019-02-06T17:51:11.231Z,69.46
2019-02-06T17:53:39.419Z,69.61
2019-02-06T17:56:06.860Z,69.80
2019-02-06T17:58:34.326Z,69.83
2019-02-06T18:01:01.732Z,69.75
2019-02-06T18:03:29.173Z,69.75
2019-02-06T18:05:56.589Z,69.77
2019-02-06T18:08:24.096Z,69.76
2019-02-06T18:10:51.514Z,69.89
2019-02-06T18:13:18.988Z,70.03
2019-02-06T18:15:46.411Z,70.13
2019-02-06T18:18:13.868Z,70.19
2019-02-06T18:20:41.314Z,69.89
2019-02-06T18:23:08.800Z,69.82
2019-02-06T18:25:36.205Z,69.55
2019-02-06T18:28:03.723Z,69.41
2019-02-06T18:30:31.143Z,69.25
2019-02-06T18:32:59.295Z,69.56
2019-02-06T18:35:26.705Z,69.70
2019-02-06T18:37:54.153Z,69.73
2019-02-06T18:40:22.975Z,70.38
2019-02-06T18:42:49.799Z,71.00
2019-02-06T18:45:17.220Z,71.26
2019-02-06T18:47:44.644Z,71.13
2019-02-06T18:50:12.825Z,71.36
2019-02-06T18:52:40.439Z,71.61
2019-02-06T18:55:07.866Z,71.80
2019-02-06T18:57:35.355Z,71.76
2019-02-06T19:00:02.822Z,71.61
2019-02-06T19:02:30.540Z,71.39
2019-02-06T19:04:58.073Z,71.28
2019-02-06T19:07:26.151Z,71.19
2019-02-06T19:09:53.690Z,70.95
2019-02-06T19:12:21.109Z,70.71
2019-02-06T19:14:48.765Z,70.83
2019-02-06T19:17:16.163Z,70.80
2019-02-06T19:19:45.072Z,70.76
2019-02-06T19:22:10.996Z,70.85
2019-02-06T19:24:38.476Z,71.11
2019-02-06T19:27:05.883Z,70.83
2019-02-06T19:29:33.291Z,70.81
2019-02-06T19:32:00.802Z,70.54
2019-02-06T19:34:28.134Z,70.70
2019-02-06T19:36:56.040Z,71.03
2019-02-06T19:39:24.550Z,71.61
2019-02-06T19:41:51.982Z,72.06
2019-02-06T19:44:19.569Z,72.06
2019-02-06T19:46:47.012Z,72.24
2019-02-06T19:49:14.429Z,72.13
2019-02-06T19:51:41.980Z,71.99
2019-02-06T19:54:09.608Z,71.95
2019-02-06T19:56:37.043Z,71.91
2019-02-06T19:59:04.457Z,71.95
2019-02-06T20:01:31.932Z,72.17
2019-02-06T20:03:59.338Z,72.41
2019-02-06T20:06:28.675Z,72.61
2019-02-06T20:08:56.130Z,72.51
2019-02-06T20:11:23.579Z,72.32
2019-02-06T20:13:51.042Z,72.22
2019-02-06T20:16:18.459Z,72.16
2019-02-06T20:18:45.869Z,72.19
2019-02-06T20:21:13.405Z,72.07
2019-02-06T20:23:40.813Z,71.90
2019-02-06T20:26:08.236Z,71.84
2019-02-06T20:28:35.698Z,71.95
2019-02-06T20:31:03.124Z,72.07
2019-02-06T20:33:30.534Z,72.18
2019-02-06T20:35:57.937Z,71.87
2019-02-06T20:38:25.902Z,71.82
2019-02-06T20:40:53.371Z,71.80
2019-02-06T20:43:22.408Z,72.20
2019-02-06T20:45:48.403Z,72.51
2019-02-06T20:48:15.815Z,72.50
2019-02-06T20:50:43.260Z,72.51
2019-02-06T20:53:10.706Z,72.62
2019-02-06T20:55:38.216Z,72.69
2019-02-06T20:58:05.643Z,72.61
2019-02-06T21:00:48.461Z,72.65
2019-02-06T21:03:15.899Z,73.11
2019-02-06T21:05:43.336Z,73.55
2019-02-06T21:08:10.764Z,73.94
2019-02-06T21:10:38.213Z,73.85
2019-02-06T21:13:06.196Z,73.90
2019-02-06T21:15:33.636Z,74.21
2019-02-06T21:18:01.045Z,74.55
2019-02-06T21:20:28.514Z,74.73
2019-02-06T21:22:56.035Z,74.66
2019-02-06T21:25:23.464Z,74.78
2019-02-06T21:27:50.889Z,74.60
2019-02-06T21:30:24.002Z,74.31
2019-02-06T21:32:51.481Z,74.05
2019-02-06T21:35:18.911Z,74.19
2019-02-06T21:37:46.325Z,74.37
2019-02-06T21:40:20.281Z,74.47
2019-02-06T21:42:46.691Z,74.30
2019-02-06T21:45:14.139Z,73.96
2019-02-06T21:47:41.560Z,73.87
2019-02-06T21:50:10.373Z,73.86
2019-02-06T21:52:37.953Z,73.92
2019-02-06T21:55:05.359Z,73.97
2019-02-06T21:57:32.785Z,74.12
2019-02-06T22:00:00.218Z,74.31
2019-02-06T22:02:27.839Z,74.48
2019-02-06T22:04:55.247Z,74.52
2019-02-06T22:07:22.917Z,74.18
2019-02-06T22:09:50.672Z,73.90
2019-02-06T22:12:18.081Z,74.33
2019-02-06T22:14:45.630Z,74.74
2019-02-06T22:17:13.086Z,75.56
2019-02-06T22:19:40.501Z,75.62
2019-02-06T22:22:07.989Z,75.77
2019-02-06T22:24:35.421Z,75.62
2019-02-06T22:27:02.821Z,75.17
2019-02-06T22:29:30.227Z,74.89
2019-02-06T22:31:57.628Z,75.15
2019-02-06T22:34:25.054Z,75.06
2019-02-06T22:36:52.657Z,74.74
2019-02-06T22:39:20.115Z,74.54
2019-02-06T22:41:47.531Z,74.64
2019-02-06T22:44:14.967Z,74.64
2019-02-06T22:46:42.382Z,74.25
2019-02-06T22:49:09.791Z,74.04
2019-02-06T22:51:37.225Z,74.17
2019-02-06T22:54:04.675Z,74.21
2019-02-06T22:56:32.079Z,74.44
2019-02-06T22:58:59.595Z,74.57
2019-02-06T23:01:27.065Z,74.79
2019-02-06T23:03:54.472Z,75.54
2019-02-06T23:06:21.943Z,76.05
2019-02-06T23:08:49.337Z,76.04
2019-02-06T23:11:16.762Z,75.90
2019-02-06T23:13:44.164Z,75.76
2019-02-06T23:16:11.675Z,75.53
2019-02-06T23:18:39.086Z,76.05
2019-02-06T23:21:06.505Z,76.14
2019-02-06T23:23:33.927Z,76.41
2019-02-06T23:26:01.325Z,76.35
2019-02-06T23:28:29.627Z,75.87
2019-02-06T23:30:57.125Z,75.79
2019-02-06T23:33:24.532Z,75.97
2019-02-06T23:35:51.938Z,75.82
2019-02-06T23:38:19.362Z,75.75
2019-02-06T23:40:46.931Z,75.90
2019-02-06T23:43:14.335Z,75.93
2019-02-06T23:45:41.905Z,76.16
2019-02-06T23:48:09.557Z,76.62
2019-02-06T23:50:36.952Z,76.82
2019-02-06T23:53:04.371Z,76.58
2019-02-06T23:55:32.464Z,76.39
2019-02-06T23:57:59.893Z,76.41
